Time,TemperatureF,DewpointF,PressureIn,WindDirection,WindDirectionDegrees,WindSpeedMPH,WindSpeedGustMPH,Humidity,HourlyPrecipIn,Conditions,Clouds,dailyrainin,SoftwareType,DateUTC
2013-06-22 00:14:00,57.5,52.0,29.41,WSW,238,3.0,9.0,83,0.00,,,0.05,weatherlink.com 1.10,2013-06-21 23:14:00,
2013-06-22 00:29:00,57.6,53.0,29.41,South,188,5.0,9.0,83,0.00,,,0.05,weatherlink.com 1.10,2013-06-21 23:29:00,
2013-06-22 00:44:00,57.9,53.0,29.40,West,275,4.0,10.0,83,0.00,,,0.05,weatherlink.com 1.10,2013-06-21 23:44:00,
2013-06-22 00:59:00,57.9,53.0,29.39,SW,222,3.0,9.0,83,0.00,,,0.05,weatherlink.com 1.10,2013-06-21 23:59:00,
2013-06-22 01:14:00,57.7,53.0,29.38,SSW,198,6.0,9.0,83,0.00,,,0.05,weatherlink.com 1.10,2013-06-22 00:14:00,
2013-06-22 01:29:00,57.5,52.0,29.37,SW,226,3.0,8.0,83,0.00,,,0.05,weatherlink.com 1.10,2013-06-22 00:29:00,
2013-06-22 01:44:00,57.9,52.0,29.37,WSW,253,3.0,12.0,82,0.00,,,0.05,weatherlink.com 1.10,2013-06-22 00:44:00,
2013-06-22 01:59:00,57.6,52.0,29.36,WSW,250,2.0,8.0,80,0.00,,,0.05,weatherlink.com 1.10,2013-06-22 00:59:00,
2013-06-22 02:14:00,57.4,51.0,29.35,WSW,248,2.0,7.0,80,0.00,,,0.05,weatherlink.com 1.10,2013-06-22 01:14:00,
2013-06-22 02:29:00,56.8,51.0,29.34,WSW,239,0.0,8.0,82,0.00,,,0.05,weatherlink.com 1.10,2013-06-22 01:29:00,
2013-06-22 02:44:00,56.7,51.0,29.33,West,260,3.0,6.0,81,0.00,,,0.00,weatherlink.com 1.10,2013-06-22 01:44:00,
2013-06-22 02:59:00,56.6,50.0,29.32,SW,228,3.0,9.0,78,0.00,,,0.00,weatherlink.com 1.10,2013-06-22 01:59:00,
2013-06-22 03:14:00,57.3,49.0,29.32,WNW,291,3.0,12.0,75,0.00,,,0.00,weatherlink.com 1.10,2013-06-22 02:14:00,
2013-06-22 03:29:00,57.5,50.0,29.32,SW,225,1.0,18.0,75,0.00,,,0.00,weatherlink.com 1.10,2013-06-22 02:29:00,
2013-06-22 03:44:00,57.2,50.0,29.32,WNW,294,4.0,9.0,76,0.00,,,0.00,weatherlink.com 1.10,2013-06-22 02:44:00,
2013-06-22 03:59:00,56.8,50.0,29.32,SSW,211,2.0,10.0,78,0.00,,,0.00,weatherlink.com 1.10,2013-06-22 02:59:00,
2013-06-22 04:14:00,56.4,50.0,29.31,WNW,300,5.0,13.0,79,0.00,,,0.00,weatherlink.com 1.10,2013-06-22 03:14:00,
2013-06-22 04:29:00,55.9,50.0,29.30,SW,214,3.0,12.0,81,0.00,,,0.00,weatherlink.com 1.10,2013-06-22 03:29:00,
2013-06-22 04:44:00,55.8,50.0,29.30,WSW,253,8.0,10.0,81,0.00,,,0.00,weatherlink.com 1.10,2013-06-22 03:44:00,
2013-06-22 04:59:00,55.4,51.0,29.30,NW,309,4.0,8.0,84,0.00,,,0.00,weatherlink.com 1.10,2013-06-22 03:59:00,
2013-06-22 05:15:00,54.7,51.0,29.30,WNW,284,1.0,9.0,86,0.00,,,0.00,weatherlink.com 1.10,2013-06-22 04:15:00,
2013-06-22 05:30:00,53.9,51.0,29.30,SSW,205,0.0,7.0,88,0.01,,,0.01,weatherlink.com 1.10,2013-06-22 04:30:00,
2013-06-22 05:45:00,53.5,50.0,29.30,SSW,212,5.0,8.0,89,0.01,,,0.01,weatherlink.com 1.10,2013-06-22 04:45:00,
2013-06-22 06:00:00,53.1,50.0,29.30,WNW,302,2.0,11.0,89,0.02,,,0.02,weatherlink.com 1.10,2013-06-22 05:00:00,
2013-06-22 06:15:00,52.7,50.0,29.30,WSW,254,2.0,9.0,89,0.02,,,0.02,weatherlink.com 1.10,2013-06-22 05:15:00,
2013-06-22 06:30:00,52.8,49.0,29.29,WSW,257,1.0,9.0,88,0.01,,,0.02,weatherlink.com 1.10,2013-06-22 05:30:00,
2013-06-22 06:45:00,53.2,50.0,29.29,West,276,1.0,8.0,87,0.01,,,0.02,weatherlink.com 1.10,2013-06-22 05:45:00,
2013-06-22 07:00:00,53.6,50.0,29.28,WSW,249,9.0,10.0,87,0.00,,,0.02,weatherlink.com 1.10,2013-06-22 06:00:00,
2013-06-22 07:15:00,54.3,50.0,29.28,SSW,211,7.0,8.0,85,0.00,,,0.02,weatherlink.com 1.10,2013-06-22 06:15:00,
2013-06-22 07:30:00,55.0,50.0,29.28,SW,221,4.0,9.0,83,0.00,,,0.02,weatherlink.com 1.10,2013-06-22 06:30:00,
2013-06-22 07:45:00,55.3,50.0,29.27,SW,231,7.0,11.0,81,0.00,,,0.02,weatherlink.com 1.10,2013-06-22 06:45:00,
2013-06-22 08:00:00,55.8,50.0,29.27,SSW,197,3.0,11.0,80,0.00,,,0.02,weatherlink.com 1.10,2013-06-22 07:00:00,
2013-06-22 08:15:00,55.8,49.0,29.27,NW,307,3.0,14.0,79,0.00,,,0.02,weatherlink.com 1.10,2013-06-22 07:15:00,
2013-06-22 08:30:00,56.3,50.0,29.27,West,275,6.0,17.0,78,0.00,,,0.02,weatherlink.com 1.10,2013-06-22 07:30:00,
2013-06-22 08:45:00,57.0,50.0,29.27,West,270,7.0,14.0,77,0.00,,,0.02,weatherlink.com 1.10,2013-06-22 07:45:00,
2013-06-22 09:00:00,57.3,50.0,29.27,West,264,4.0,15.0,76,0.00,,,0.02,weatherlink.com 1.10,2013-06-22 08:00:00,
2013-06-22 09:15:00,56.9,50.0,29.27,WSW,253,5.0,15.0,78,0.00,,,0.02,weatherlink.com 1.10,2013-06-22 08:15:00,
2013-06-22 09:30:00,57.8,50.0,29.27,NW,307,3.0,16.0,75,0.00,,,0.02,weatherlink.com 1.10,2013-06-22 08:30:00,
2013-06-22 09:45:00,58.1,50.0,29.26,SW,236,3.0,12.0,74,0.00,,,0.02,weatherlink.com 1.10,2013-06-22 08:45:00,
2013-06-22 10:00:00,58.9,50.0,29.25,NW,321,6.0,15.0,73,0.00,,,0.02,weatherlink.com 1.10,2013-06-22 09:00:00,
2013-06-22 10:15:00,59.8,50.0,29.25,WSW,240,7.0,18.0,71,0.00,,,0.02,weatherlink.com 1.10,2013-06-22 09:15:00,
2013-06-22 10:31:00,59.9,50.0,29.25,ENE,63,3.0,18.0,70,0.00,,,0.02,weatherlink.com 1.10,2013-06-22 09:31:00,
2013-06-22 10:46:00,58.0,51.0,29.25,West,267,4.0,14.0,78,0.00,,,0.02,weatherlink.com 1.10,2013-06-22 09:46:00,
2013-06-22 11:01:00,56.9,52.0,29.25,SSW,211,3.0,13.0,83,0.02,,,0.03,weatherlink.com 1.10,2013-06-22 10:01:00,
2013-06-22 11:16:00,58.4,52.0,29.25,South,184,6.0,15.0,80,0.02,,,0.03,weatherlink.com 1.10,2013-06-22 10:16:00,
2013-06-22 11:31:00,58.2,52.0,29.26,SSW,200,6.0,18.0,79,0.02,,,0.04,weatherlink.com 1.10,2013-06-22 10:31:00,
2013-06-22 11:46:00,58.8,52.0,29.25,North,8,5.0,17.0,77,0.02,,,0.04,weatherlink.com 1.10,2013-06-22 10:46:00,
2013-06-22 12:01:00,59.1,52.0,29.25,NW,325,5.0,12.0,78,0.01,,,0.04,weatherlink.com 1.10,2013-06-22 11:01:00,
2013-06-22 12:16:00,59.9,51.0,29.25,NW,314,9.0,22.0,73,0.01,,,0.04,weatherlink.com 1.10,2013-06-22 11:16:00,
2013-06-22 12:31:00,60.6,51.0,29.25,WSW,252,5.0,17.0,70,0.00,,,0.04,weatherlink.com 1.10,2013-06-22 11:31:00,
2013-06-22 12:46:00,61.8,51.0,29.24,ENE,75,3.0,16.0,69,0.00,,,0.04,weatherlink.com 1.10,2013-06-22 11:46:00,
2013-06-22 13:01:00,62.8,51.0,29.24,West,259,12.0,19.0,65,0.00,,,0.04,weatherlink.com 1.10,2013-06-22 12:01:00,
2013-06-22 13:16:00,63.4,52.0,29.25,WSW,253,8.0,17.0,67,0.00,,,0.04,weatherlink.com 1.10,2013-06-22 12:16:00,
2013-06-22 13:31:00,61.2,53.0,29.25,NW,309,6.0,16.0,75,0.00,,,0.04,weatherlink.com 1.10,2013-06-22 12:31:00,
2013-06-22 13:46:00,62.5,52.0,29.25,West,268,10.0,16.0,69,0.00,,,0.04,weatherlink.com 1.10,2013-06-22 12:46:00,
2013-06-22 14:01:00,61.0,53.0,29.26,North,11,4.0,22.0,75,0.01,,,0.05,weatherlink.com 1.10,2013-06-22 13:01:00,
2013-06-22 14:16:00,58.2,53.0,29.26,WNW,286,13.0,15.0,84,0.03,,,0.07,weatherlink.com 1.10,2013-06-22 13:16:00,
2013-06-22 14:31:00,58.9,53.0,29.26,WSW,248,6.0,19.0,81,0.03,,,0.07,weatherlink.com 1.10,2013-06-22 13:31:00,
2013-06-22 14:46:00,60.5,54.0,29.26,WSW,250,5.0,16.0,78,0.03,,,0.07,weatherlink.com 1.10,2013-06-22 13:46:00,
2013-06-22 15:01:00,60.5,53.0,29.26,WSW,249,8.0,21.0,77,0.02,,,0.07,weatherlink.com 1.10,2013-06-22 14:01:00,
2013-06-22 15:16:00,58.6,53.0,29.27,West,263,8.0,19.0,82,0.02,,,0.09,weatherlink.com 1.10,2013-06-22 14:16:00,
2013-06-22 15:31:00,59.9,54.0,29.27,West,264,5.0,15.0,81,0.02,,,0.09,weatherlink.com 1.10,2013-06-22 14:31:00,
2013-06-22 15:46:00,61.8,53.0,29.27,WSW,239,7.0,15.0,72,0.02,,,0.09,weatherlink.com 1.10,2013-06-22 14:46:00,
2013-06-22 16:01:00,61.0,54.0,29.27,West,266,7.0,16.0,77,0.02,,,0.09,weatherlink.com 1.10,2013-06-22 15:01:00,
2013-06-22 16:16:00,60.6,53.0,29.27,WSW,257,5.0,15.0,76,0.01,,,0.10,weatherlink.com 1.10,2013-06-22 15:16:00,
2013-06-22 16:31:00,60.5,52.0,29.27,WNW,286,5.0,15.0,73,0.01,,,0.10,weatherlink.com 1.10,2013-06-22 15:31:00,
2013-06-22 16:46:00,61.0,52.0,29.27,SW,231,8.0,20.0,71,0.01,,,0.10,weatherlink.com 1.10,2013-06-22 15:46:00,
2013-06-22 17:01:00,60.7,51.0,29.28,West,274,13.0,18.0,71,0.01,,,0.10,weatherlink.com 1.10,2013-06-22 16:01:00,
2013-06-22 17:16:00,60.6,52.0,29.28,West,280,11.0,17.0,72,0.00,,,0.10,weatherlink.com 1.10,2013-06-22 16:16:00,
2013-06-22 17:31:00,58.8,53.0,29.29,West,264,3.0,18.0,80,0.00,,,0.10,weatherlink.com 1.10,2013-06-22 16:31:00,
2013-06-22 17:46:00,58.1,53.0,29.29,West,269,6.0,18.0,84,0.02,,,0.12,weatherlink.com 1.10,2013-06-22 16:46:00,
2013-06-22 18:01:00,58.0,52.0,29.28,NW,304,8.0,18.0,81,0.02,,,0.12,weatherlink.com 1.10,2013-06-22 17:01:00,
2013-06-22 18:17:00,59.3,52.0,29.28,WNW,291,4.0,18.0,76,0.02,,,0.13,weatherlink.com 1.10,2013-06-22 17:17:00,
2013-06-22 18:31:00,59.9,51.0,29.29,West,269,7.0,16.0,72,0.02,,,0.13,weatherlink.com 1.10,2013-06-22 17:31:00,
2013-06-22 18:46:00,59.7,51.0,29.29,NNE,26,11.0,17.0,73,0.01,,,0.13,weatherlink.com 1.10,2013-06-22 17:46:00,
2013-06-22 19:01:00,60.0,51.0,29.29,WNW,282,3.0,17.0,71,0.01,,,0.13,weatherlink.com 1.10,2013-06-22 18:01:00,
2013-06-22 19:16:00,59.4,51.0,29.29,NNE,29,3.0,16.0,73,0.00,,,0.13,weatherlink.com 1.10,2013-06-22 18:16:00,
2013-06-22 19:31:00,58.7,50.0,29.30,SW,214,8.0,15.0,74,0.00,,,0.13,weatherlink.com 1.10,2013-06-22 18:31:00,
2013-06-22 19:46:00,58.2,50.0,29.30,WNW,294,9.0,16.0,75,0.00,,,0.13,weatherlink.com 1.10,2013-06-22 18:46:00,
2013-06-22 20:01:00,58.1,50.0,29.30,NW,314,7.0,17.0,75,0.00,,,0.13,weatherlink.com 1.10,2013-06-22 19:01:00,
2013-06-22 20:16:00,57.5,51.0,29.31,West,271,3.0,19.0,78,0.00,,,0.13,weatherlink.com 1.10,2013-06-22 19:16:00,
2013-06-22 20:31:00,56.8,51.0,29.32,West,259,4.0,13.0,81,0.00,,,0.13,weatherlink.com 1.10,2013-06-22 19:31:00,
2013-06-22 20:46:00,56.9,52.0,29.32,NNE,20,5.0,15.0,82,0.00,,,0.13,weatherlink.com 1.10,2013-06-22 19:46:00,
2013-06-22 21:01:00,56.9,51.0,29.33,WNW,294,10.0,11.0,81,0.00,,,0.13,weatherlink.com 1.10,2013-06-22 20:01:00,
2013-06-22 21:16:00,56.3,52.0,29.34,WNW,300,2.0,11.0,86,0.01,,,0.13,weatherlink.com 1.10,2013-06-22 20:16:00,
2013-06-22 21:31:00,55.2,52.0,29.36,SSW,212,2.0,8.0,89,0.02,,,0.14,weatherlink.com 1.10,2013-06-22 20:31:00,
2013-06-22 21:46:00,55.0,52.0,29.37,SW,215,2.0,12.0,90,0.02,,,0.14,weatherlink.com 1.10,2013-06-22 20:46:00,
2013-06-22 22:01:00,55.0,52.0,29.38,SW,235,3.0,6.0,90,0.02,,,0.14,weatherlink.com 1.10,2013-06-22 21:01:00,
2013-06-22 22:17:00,54.7,52.0,29.38,NW,312,2.0,11.0,89,0.01,,,0.14,weatherlink.com 1.10,2013-06-22 21:17:00,
2013-06-22 22:31:00,54.6,52.0,29.39,West,266,2.0,12.0,90,0.00,,,0.14,weatherlink.com 1.10,2013-06-22 21:31:00,
2013-06-22 22:46:00,54.7,52.0,29.40,WNW,293,4.0,11.0,89,0.00,,,0.14,weatherlink.com 1.10,2013-06-22 21:46:00,
2013-06-22 23:01:00,54.3,51.0,29.41,West,273,3.0,13.0,88,0.00,,,0.14,weatherlink.com 1.10,2013-06-22 22:01:00,
2013-06-22 23:16:00,54.2,51.0,29.42,West,270,1.0,9.0,88,0.00,,,0.14,weatherlink.com 1.10,2013-06-22 22:16:00,
2013-06-22 23:32:00,54.3,51.0,29.43,NW,306,4.0,15.0,89,0.00,,,0.14,weatherlink.com 1.10,2013-06-22 22:32:00,
2013-06-22 23:47:00,54.3,51.0,29.43,West,260,4.0,14.0,89,0.00,,,0.14,weatherlink.com 1.10,2013-06-22 22:47:00,